ADDS TAF Board (Experimental) INFO Settings

IDs: Format: Expanded Condensed

KSAN - San Diego Intl Arpt, CA, US

Issued at 1503 UTC 28 Feb 2015
Updated at: 1552 UTC 28 Feb 2015
Time1451Z 28/16Z 28/17Z 28/18Z 28/19Z 28/20Z 28/21Z 28/22Z 28/23Z 01/00Z 01/01Z 01/02Z 01/03Z 01/04Z
Type OBS PRVL PRVL PRVL
  [TEMP]  
PRVL
  [TEMP]  
PRVL
  [TEMP]  
PRVL
  [TEMP]  
PRVL PRVL PRVL PRVL PRVL PRVL PRVL
VIS 10 >6 >6 >6 >6 >6 >6 >6 >6 >6 >6 >6 6 6
CIG 49 35 35 35
  [35]  
35
  [35]  
35
  [35]  
35
  [35]  
35 35 35 35 35 35 35
Cover BKN BKN BKN BKN
  [BKN]  
BKN
  [BKN]  
BKN
  [BKN]  
BKN
  [BKN]  
BKN BKN BKN BKN BKN OVC OVC
FltCat VFR VFR VFR VFR
  [VFR]  
VFR
  [VFR]  
VFR
  [VFR]  
VFR
  [VFR]  
VFR VFR VFR VFR VFR VFR VFR
WX -RA VCSH VCSH VCSH
  [--]  
VCSH
  [--]  
VCSH
  [--]  
VCSH
  [--]  
VCSH VCSH VCSH VCSH VCSH BR VCSH BR VCSH
WDir 280 260 260 260
[260]
260
[260]
260
[260]
260
[260]
260 260 260 260 260 250 250
WSpd 8 11 11 11
  [14]  
11
  [14]  
11
  [14]  
11
  [14]  
11 11 11 11 11 7 7
WGst -- -- -- --
  [22]  
--
  [22]  
--
  [22]  
--
  [22]  
-- -- -- -- -- -- --
R09/27
XWnd -1 -5 -5 -5 -5 -5 -5 -5 -5 -5 -5 -5 -4 -4
XGst -- -- -- 0 0 0 0 -- -- -- -- -- -- --
HWnd -8 -10 -10 -10 -10 -10 -10 -10 -10 -10 -10 -10 -6 -6
HGst -- -- -- 0 0 0 0 -- -- -- -- -- -- --

NOTE: TEMPO conditions in [brackets]. Keep in mind TEMPO conditions might be better (lower impact) than prevailing conditions.

Raw TAF
KSAN 281503Z 2815/0118 26011KT P6SM VCSH BKN035
  TEMPO 2818/2822 26014G22KT
  FM010300 25007KT 6SM BR VCSH SCT025 OVC035
  FM011000 23005KT 5SM -SHRA BR SCT015 BKN025


Raw METAR
KSAN 281451Z 28008KT 10SM -RA FEW010 SCT025 BKN049 15/09 A2987 RMK AO2 RAB21 SLP116 P0000 60000 T01500094 53014 $
KSAN 281351Z 28008KT 9SM FEW030 BKN055 15/09 A2986 RMK AO2 SLP109 T01500089 $
KSAN 281258Z 29007KT 9SM SCT023 BKN035 BKN055 15/09 A2985 RMK AO2 $
KSAN 281251Z 30007KT 8SM BKN025 BKN035 BKN049 15/09 A2985 RMK AO2 RAE1159 SLP107 P0000 T01500094 $

METAR Board
Radar Display
Forecast Discussion

TAF Board Legend

Potential Impact
Threat None Slight Moderate High
Visibility (sm) ≥5.1 5.1>X≥3 3>X≥1 <1
Ceiling (100 ft) ≥30.1 30.1>X≥10 10>X≥5 <5
Wind Speed (kt) <10 10≤X<20 20≤X<30 ≥30
Wind Gust (kt) <15 15≤X<25 25≤X<35 ≥35
Weather No Wx Reported VCTS,-TS,-FZRA,SN TS,FZRA +TS,+FZRA,+SN